Time;durP1;ratioP1;P1;durP2;ratioP2;P2;SDS_P1;SDS_P2;PMS_P1;PMS_P2;Temp;Humidity;BMP_temperature;BMP_pressure;BME280_temperature;BME280_humidity;BME280_pressure;Samples;Min_cycle;Max_cycle;Signal;HPM_P1;HPM_P2
2022/06/09 00:01:24;;;;;;;2.03;1.90;;;;;;;14.33;100.00;96380.31;4837957;29;20476;-58
2022/06/09 00:03:56;;;;;;;2.27;2.07;;;;;;;14.40;100.00;96378.34;4839259;29;20300;-55
2022/06/09 00:06:26;;;;;;;2.30;1.80;;;;;;;14.33;100.00;96386.44;4844626;29;20811;-57
2022/06/09 00:08:55;;;;;;;1.93;1.83;;;;;;;14.28;100.00;96380.97;4851203;29;20644;-54
2022/06/09 00:11:25;;;;;;;2.33;2.10;;;;;;;14.26;100.00;96380.41;4829280;29;20424;-57
2022/06/09 00:13:54;;;;;;;1.83;1.73;;;;;;;14.42;100.00;96370.16;4850810;29;20666;-53
2022/06/09 00:16:22;;;;;;;3.10;2.30;;;;;;;14.38;100.00;96374.28;4841295;29;20217;-55
2022/06/09 00:18:50;;;;;;;2.10;2.00;;;;;;;14.62;100.00;96380.50;4847037;29;20365;-55
2022/06/09 00:21:18;;;;;;;1.70;1.60;;;;;;;14.42;100.00;96376.28;4817570;29;20620;-58
2022/06/09 00:23:46;;;;;;;2.30;2.10;;;;;;;14.56;100.00;96376.06;4854875;29;20525;-57
2022/06/09 00:26:14;;;;;;;2.23;2.13;;;;;;;14.66;100.00;96371.00;4831352;29;20233;-58
2022/06/09 00:28:44;;;;;;;1.57;1.47;;;;;;;14.53;100.00;96379.19;4851313;29;20305;-58
2022/06/09 00:31:12;;;;;;;2.20;2.10;;;;;;;14.52;100.00;96370.38;4851607;29;20636;-55
2022/06/09 00:33:54;;;;;;;2.03;1.93;;;;;;;14.66;100.00;96379.00;4821955;29;20507;-54
2022/06/09 00:36:22;;;;;;;2.17;1.67;;;;;;;14.66;100.00;96375.50;4806510;29;20316;-54
2022/06/09 00:38:50;;;;;;;4.03;2.60;;;;;;;14.62;100.00;96375.97;4849069;29;20238;-54
2022/06/09 00:41:19;;;;;;;1.60;1.60;;;;;;;14.80;100.00;96384.13;4852416;29;20680;-53
2022/06/09 00:43:49;;;;;;;1.67;1.57;;;;;;;14.74;100.00;96377.84;4825838;29;21006;-57
2022/06/09 00:46:19;;;;;;;2.07;1.80;;;;;;;14.69;100.00;96369.69;4851415;29;20264;-53
2022/06/09 00:48:50;;;;;;;2.60;2.20;;;;;;;14.65;100.00;96374.69;4824496;29;20336;-55
2022/06/09 00:51:31;;;;;;;2.67;2.50;;;;;;;14.31;100.00;96388.53;4805694;29;20795;-51
2022/06/09 00:54:04;;;;;;;2.63;2.43;;;;;;;14.18;100.00;96386.06;4850398;29;20222;-56
2022/06/09 00:56:34;;;;;;;3.40;2.60;;;;;;;14.18;100.00;96381.53;4847093;29;20686;-54
2022/06/09 00:59:03;;;;;;;3.33;3.03;;;;;;;14.06;100.00;96387.88;4823314;29;20285;-58
2022/06/09 01:01:33;;;;;;;2.57;2.47;;;;;;;14.22;100.00;96386.44;4848377;29;20511;-52
2022/06/09 01:04:04;;;;;;;2.80;2.60;;;;;;;14.15;100.00;96386.50;4830086;29;20226;-59
2022/06/09 01:06:36;;;;;;;3.03;2.70;;;;;;;14.06;100.00;96380.69;4809352;29;20584;-55
2022/06/09 01:09:07;;;;;;;3.17;2.93;;;;;;;13.99;100.00;96377.28;4851571;29;20681;-55
2022/06/09 01:11:36;;;;;;;2.97;2.77;;;;;;;13.99;100.00;96382.63;4844702;29;20541;-51
2022/06/09 01:14:07;;;;;;;3.27;3.00;;;;;;;13.83;100.00;96381.41;4820789;29;20581;-56
2022/06/09 01:16:46;;;;;;;3.17;2.93;;;;;;;13.96;100.00;96383.06;4849529;29;20481;-56
2022/06/09 01:19:50;;;;;;;2.93;2.73;;;;;;;13.96;100.00;96377.75;4850724;29;20705;-55
2022/06/09 01:22:51;;;;;;;3.37;3.17;;;;;;;14.15;100.00;96381.97;4800561;29;20320;-54
2022/06/09 01:26:00;;;;;;;3.70;3.40;;;;;;;14.09;100.00;96376.75;4841151;29;20913;-52
2022/06/09 01:28:56;;;;;;;3.73;3.37;;;;;;;14.28;100.00;96373.00;4843548;29;20774;-54
2022/06/09 01:31:29;;;;;;;2.93;2.83;;;;;;;14.16;100.00;96372.16;4816765;29;20267;-52
2022/06/09 01:34:03;;;;;;;3.00;2.80;;;;;;;13.98;100.00;96381.00;4853676;29;20304;-57
2022/06/09 01:36:37;;;;;;;3.83;3.20;;;;;;;14.01;100.00;96375.22;4827532;29;20313;-54
2022/06/09 01:39:05;;;;;;;3.80;3.20;;;;;;;14.01;100.00;96385.88;4809540;29;20588;-56
2022/06/09 01:41:35;;;;;;;3.73;3.23;;;;;;;14.01;100.00;96384.00;4853860;29;20380;-52
2022/06/09 01:44:04;;;;;;;3.13;2.93;;;;;;;13.95;100.00;96384.91;4854582;29;20308;-54
2022/06/09 01:46:35;;;;;;;3.63;3.43;;;;;;;13.95;100.00;96381.44;4821393;29;20984;-52
2022/06/09 01:49:07;;;;;;;3.50;3.20;;;;;;;14.08;100.00;96381.25;4855782;29;20221;-58
2022/06/09 01:51:39;;;;;;;3.33;3.03;;;;;;;14.10;100.00;96381.84;4828200;29;20245;-58
2022/06/09 01:54:10;;;;;;;3.80;3.30;;;;;;;14.01;100.00;96381.34;4811657;29;20754;-54
2022/06/09 01:56:43;;;;;;;3.60;3.23;;;;;;;14.17;100.00;96379.09;4853681;29;20642;-50
2022/06/09 01:59:15;;;;;;;3.30;3.00;;;;;;;14.17;100.00;96385.22;4849759;29;20218;-54
2022/06/09 02:01:50;;;;;;;3.63;3.33;;;;;;;14.01;100.00;96378.69;4823383;29;20898;-56
2022/06/09 02:04:21;;;;;;;3.10;2.90;;;;;;;14.18;100.00;96373.53;4853999;29;20210;-52
2022/06/09 02:06:51;;;;;;;3.63;3.17;;;;;;;14.14;100.00;96372.38;4826478;29;21420;-52
2022/06/09 02:09:19;;;;;;;3.10;3.00;;;;;;;13.96;100.00;96377.75;4777475;29;20811;-52
2022/06/09 02:11:50;;;;;;;3.40;3.20;;;;;;;13.94;100.00;96375.31;4852471;29;20286;-53
2022/06/09 02:14:19;;;;;;;3.60;3.30;;;;;;;13.82;100.00;96382.44;4852457;29;20297;-54
2022/06/09 02:16:48;;;;;;;3.60;3.30;;;;;;;13.96;100.00;96381.22;4818628;29;20305;-54
2022/06/09 02:19:17;;;;;;;3.83;3.53;;;;;;;14.01;100.00;96380.53;4854479;29;20239;-57
2022/06/09 02:21:45;;;;;;;3.40;3.20;;;;;;;14.03;100.00;96378.47;4828286;29;20238;-52
2022/06/09 02:24:14;;;;;;;3.80;3.60;;;;;;;13.96;100.00;96385.75;4806593;29;21407;-55
2022/06/09 02:26:42;;;;;;;3.67;3.37;;;;;;;13.87;100.00;96387.91;4853011;29;20242;-52
2022/06/09 02:29:10;;;;;;;4.30;3.83;;;;;;;13.87;100.00;96386.06;4850812;29;20297;-57
2022/06/09 02:31:38;;;;;;;3.50;3.20;;;;;;;13.75;100.00;96387.81;4848858;29;20796;-51
2022/06/09 02:34:09;;;;;;;3.20;3.00;;;;;;;13.60;100.00;96397.03;4822865;29;20424;-52
2022/06/09 02:36:37;;;;;;;3.00;2.70;;;;;;;13.57;100.00;96397.47;4833253;29;20278;-56
2022/06/09 02:39:06;;;;;;;2.90;2.73;;;;;;;13.57;100.00;96400.13;4849991;29;20882;-55
2022/06/09 02:41:34;;;;;;;2.90;2.70;;;;;;;13.45;100.00;96402.72;4807281;29;20321;-54
2022/06/09 02:44:03;;;;;;;4.43;3.03;;;;;;;13.45;100.00;96396.59;4847897;29;20706;-54
2022/06/09 02:46:32;;;;;;;3.30;3.10;;;;;;;13.58;100.00;96403.59;4848712;29;20221;-57
2022/06/09 02:49:00;;;;;;;2.80;2.63;;;;;;;13.51;100.00;96405.53;4823110;29;20332;-58
2022/06/09 02:51:32;;;;;;;2.37;2.27;;;;;;;13.39;100.00;96397.41;4855241;29;20222;-54
2022/06/09 02:54:02;;;;;;;2.27;2.17;;;;;;;13.35;100.00;96402.38;4824968;29;20583;-50
2022/06/09 02:56:31;;;;;;;2.73;2.63;;;;;;;13.28;100.00;96402.44;4807375;29;20221;-58
2022/06/09 02:59:00;;;;;;;2.50;2.40;;;;;;;13.28;100.00;96405.09;4825507;29;20706;-57
2022/06/09 03:01:28;;;;;;;3.23;2.37;;;;;;;13.31;100.00;96399.34;4846057;29;20230;-55
2022/06/09 03:03:57;;;;;;;2.50;2.40;;;;;;;13.26;100.00;96401.06;4822154;29;20670;-51
2022/06/09 03:06:26;;;;;;;2.57;2.47;;;;;;;13.24;100.00;96406.59;4849929;29;20781;-54
2022/06/09 03:08:55;;;;;;;4.60;2.30;;;;;;;13.40;100.00;96404.38;4794367;29;20692;-56
2022/06/09 03:11:24;;;;;;;3.67;3.40;;;;;;;13.32;100.00;96408.94;4806401;29;20217;-58
2022/06/09 03:13:52;;;;;;;2.43;2.33;;;;;;;13.37;100.00;96410.97;4817385;29;20238;-55
2022/06/09 03:16:21;;;;;;;2.53;2.33;;;;;;;13.37;100.00;96413.63;4839614;29;20573;-55
2022/06/09 03:18:49;;;;;;;2.80;2.58;;;;;;;13.27;100.00;96416.78;4821341;29;20550;-50
2022/06/09 03:21:17;;;;;;;2.67;2.47;;;;;;;13.41;100.00;96413.97;4849889;29;20214;-54
2022/06/09 03:23:46;;;;;;;2.63;2.40;;;;;;;13.32;100.00;96414.28;4833082;29;20514;-55
2022/06/09 03:26:15;;;;;;;2.77;2.50;;;;;;;13.40;100.00;96420.34;4807553;29;20573;-57
2022/06/09 03:28:44;;;;;;;2.57;2.47;;;;;;;13.56;100.00;96417.13;4856937;29;20237;-56
2022/06/09 03:31:12;;;;;;;2.43;2.23;;;;;;;13.48;100.00;96412.13;4853804;29;21022;-57
2022/06/09 03:33:40;;;;;;;2.40;2.30;;;;;;;13.41;100.00;96419.28;4850776;29;20225;-58
2022/06/09 03:36:09;;;;;;;2.73;2.63;;;;;;;13.46;100.00;96414.19;4829683;29;20292;-56
2022/06/09 03:38:40;;;;;;;2.63;2.43;;;;;;;13.51;100.00;96413.50;4855053;29;20277;-57
2022/06/09 03:41:08;;;;;;;2.60;2.40;;;;;;;13.34;100.00;96414.06;4831533;29;20269;-55
2022/06/09 03:43:38;;;;;;;3.87;3.00;;;;;;;13.29;100.00;96422.69;4817412;29;20292;-55
2022/06/09 03:46:08;;;;;;;2.83;2.67;;;;;;;13.39;100.00;96430.19;4848459;29;20206;-52
2022/06/09 03:48:36;;;;;;;2.90;2.70;;;;;;;13.34;100.00;96430.03;4855670;29;20234;-55
2022/06/09 03:51:04;;;;;;;2.97;2.63;;;;;;;13.52;100.00;96420.44;4827940;29;20259;-57
2022/06/09 03:53:33;;;;;;;2.90;2.70;;;;;;;13.52;100.00;96423.94;4856118;29;21249;-56
2022/06/09 03:56:01;;;;;;;2.57;2.37;;;;;;;13.27;100.00;96424.75;4825577;29;20229;-54
2022/06/09 03:58:29;;;;;;;2.90;2.77;;;;;;;13.28;100.00;96417.63;4817971;29;20218;-56
2022/06/09 04:00:59;;;;;;;2.80;2.70;;;;;;;13.23;100.00;96423.59;4850396;29;20305;-53
2022/06/09 04:03:27;;;;;;;3.20;3.00;;;;;;;13.28;100.00;96428.25;4853098;29;20234;-59
2022/06/09 04:05:55;;;;;;;3.23;3.03;;;;;;;13.41;100.00;96429.94;4824042;29;20753;-55
2022/06/09 04:08:30;;;;;;;2.97;2.77;;;;;;;13.31;100.00;96433.13;4850920;29;20229;-55
2022/06/09 04:10:58;;;;;;;3.00;2.80;;;;;;;13.16;100.00;96426.28;4836739;29;20237;-54
2022/06/09 04:13:26;;;;;;;2.87;2.67;;;;;;;13.34;100.00;96431.88;4847874;29;20262;-57
2022/06/09 04:15:55;;;;;;;3.23;2.93;;;;;;;13.30;100.00;96434.97;4807510;29;20321;-54
2022/06/09 04:18:24;;;;;;;3.37;3.07;;;;;;;13.30;100.00;96436.81;4854867;29;20241;-58
2022/06/09 04:20:53;;;;;;;3.50;3.23;;;;;;;13.33;100.00;96439.03;4827803;29;20305;-57
2022/06/09 04:23:21;;;;;;;3.57;3.37;;;;;;;13.37;100.00;96439.41;4855491;29;20230;-58
2022/06/09 04:25:49;;;;;;;3.77;3.47;;;;;;;13.46;100.00;96438.94;4851568;29;20217;-55
2022/06/09 04:28:18;;;;;;;3.77;3.03;;;;;;;13.65;100.00;96443.44;4836741;29;20236;-55
2022/06/09 04:30:47;;;;;;;3.10;2.90;;;;;;;13.65;100.00;96448.78;4817229;29;20616;-53
2022/06/09 04:33:15;;;;;;;5.17;3.50;;;;;;;13.55;100.00;96447.44;4847111;29;20264;-58
2022/06/09 04:35:45;;;;;;;3.43;3.30;;;;;;;13.55;100.00;96449.28;4854862;29;20217;-57
2022/06/09 04:38:14;;;;;;;3.50;3.30;;;;;;;13.65;100.00;96446.94;4831604;29;20444;-58
2022/06/09 04:40:42;;;;;;;3.47;3.27;;;;;;;13.56;100.00;96453.56;4850727;29;20228;-59
2022/06/09 04:43:12;;;;;;;3.43;3.13;;;;;;;13.71;100.00;96447.88;4832003;29;20356;-59
2022/06/09 04:45:41;;;;;;;3.50;3.20;;;;;;;13.62;100.00;96451.88;4853103;29;20222;-58
2022/06/09 04:48:10;;;;;;;3.50;3.20;;;;;;;13.75;100.00;96454.38;4823380;29;20309;-58
2022/06/09 04:50:40;;;;;;;3.33;3.10;;;;;;;13.72;100.00;96457.50;4828472;29;20214;-58
2022/06/09 04:53:10;;;;;;;3.93;3.50;;;;;;;13.83;100.00;96458.59;4825480;29;20299;-57
2022/06/09 04:55:39;;;;;;;3.70;3.40;;;;;;;13.97;100.00;96460.06;4848688;29;20526;-57
2022/06/09 04:58:07;;;;;;;3.90;3.60;;;;;;;14.03;100.00;96466.34;4833314;29;20410;-53
2022/06/09 05:00:36;;;;;;;3.60;3.40;;;;;;;13.96;100.00;96462.97;4852469;29;20293;-57
2022/06/09 05:03:04;;;;;;;3.87;3.63;;;;;;;14.00;100.00;96467.59;4809859;29;20349;-52
2022/06/09 05:05:34;;;;;;;3.80;3.50;;;;;;;13.93;100.00;96472.19;4848915;29;20426;-50
2022/06/09 05:08:03;;;;;;;3.33;3.13;;;;;;;14.06;100.00;96479.22;4824198;29;20455;-56
2022/06/09 05:10:33;;;;;;;3.40;3.13;;;;;;;14.17;100.00;96478.47;4851361;29;20506;-58
2022/06/09 05:13:05;;;;;;;3.77;3.43;;;;;;;14.25;100.00;96476.56;4834032;29;20233;-59
2022/06/09 05:15:37;;;;;;;3.67;3.43;;;;;;;14.23;100.00;96479.44;4846392;29;20727;-58
2022/06/09 05:18:06;;;;;;;3.73;3.50;;;;;;;14.24;100.00;96480.25;4812984;29;20314;-55
2022/06/09 05:20:34;;;;;;;3.40;3.17;;;;;;;14.17;100.00;96486.47;4854432;29;20528;-57
2022/06/09 05:23:02;;;;;;;3.73;3.43;;;;;;;14.10;100.00;96484.94;4828087;29;20836;-50
2022/06/09 05:25:32;;;;;;;3.83;3.53;;;;;;;14.33;100.00;96489.56;4851750;29;20429;-52
2022/06/09 05:28:00;;;;;;;4.33;3.53;;;;;;;14.26;100.00;96488.84;4851058;29;20752;-55
2022/06/09 05:30:29;;;;;;;3.87;3.67;;;;;;;14.16;100.00;96489.38;4823346;29;20958;-54
2022/06/09 05:32:57;;;;;;;3.53;3.30;;;;;;;14.30;100.00;96501.47;4849199;29;20721;-52
2022/06/09 05:35:25;;;;;;;3.40;3.20;;;;;;;14.47;100.00;96493.66;4807691;29;20653;-53
2022/06/09 05:46:15;;;;;;;3.33;3.03;;;;;;;14.41;100.00;96512.44;4834160;29;20210;-53
2022/06/09 05:48:44;;;;;;;3.50;3.30;;;;;;;14.38;100.00;96505.69;4806346;29;20794;-54
2022/06/09 05:51:13;;;;;;;3.20;3.00;;;;;;;14.43;100.00;96507.69;4850799;29;20312;-53
2022/06/09 05:53:42;;;;;;;3.57;3.30;;;;;;;14.32;100.00;96519.91;4827519;29;20697;-57
2022/06/09 05:56:11;;;;;;;4.00;3.70;;;;;;;14.42;100.00;96514.06;4853908;29;20304;-53
2022/06/09 05:58:40;;;;;;;3.60;3.30;;;;;;;14.47;100.00;96519.53;4852093;29;20584;-54
2022/06/09 06:01:10;;;;;;;3.70;3.50;;;;;;;14.48;100.00;96518.47;4837698;29;20270;-54
2022/06/09 06:03:39;;;;;;;3.10;3.00;;;;;;;14.67;100.00;96510.44;4851455;29;20487;-54
2022/06/09 06:08:53;;;;;;;4.63;3.73;;;;;;;14.88;100.00;96517.13;4828658;29;20277;-57
2022/06/09 06:11:23;;;;;;;3.43;3.20;;;;;;;14.98;100.00;96528.06;4854040;29;20320;-57
2022/06/09 06:13:52;;;;;;;3.43;3.23;;;;;;;15.03;100.00;96530.88;4851856;29;20714;-57
2022/06/09 06:16:20;;;;;;;2.70;2.60;;;;;;;15.10;100.00;96529.94;4831806;29;20250;-57
2022/06/09 06:19:05;;;;;;;3.07;2.87;;;;;;;15.33;100.00;96535.31;4849286;29;20222;-54
2022/06/09 06:21:34;;;;;;;3.10;2.90;;;;;;;15.16;100.00;96529.03;4806695;29;20315;-58
2022/06/09 06:24:03;;;;;;;3.23;3.13;;;;;;;15.17;100.00;96536.81;4851637;29;20300;-54
2022/06/09 06:26:34;;;;;;;3.17;2.97;;;;;;;15.22;100.00;96538.78;4832259;29;20948;-57
2022/06/09 06:29:04;;;;;;;4.13;3.13;;;;;;;15.22;100.00;96545.97;4855415;29;20309;-52
2022/06/09 06:31:32;;;;;;;3.00;2.80;;;;;;;15.36;100.00;96549.25;4835857;29;20950;-55
2022/06/09 06:34:00;;;;;;;3.03;2.87;;;;;;;15.61;100.00;96541.84;4851676;29;20221;-56
2022/06/09 06:36:29;;;;;;;3.40;2.93;;;;;;;15.70;100.00;96553.00;4809109;29;20373;-56
2022/06/09 06:38:58;;;;;;;3.30;3.00;;;;;;;15.75;100.00;96544.28;4858065;29;20726;-57
2022/06/09 06:41:26;;;;;;;3.20;3.00;;;;;;;16.17;100.00;96551.34;4831277;29;20217;-53
2022/06/09 06:43:56;;;;;;;3.00;2.80;;;;;;;16.16;100.00;96552.38;4858493;29;20710;-57
2022/06/09 06:46:24;;;;;;;3.80;2.30;;;;;;;16.15;100.00;96553.44;4832769;29;20787;-57
2022/06/09 06:48:53;;;;;;;2.60;2.50;;;;;;;16.17;100.00;96557.50;4857943;29;20327;-55
2022/06/09 06:51:21;;;;;;;2.83;2.63;;;;;;;16.15;100.00;96556.94;4809686;29;22821;-52
2022/06/09 06:53:50;;;;;;;3.10;2.90;;;;;;;16.08;100.00;96556.22;4856091;29;20237;-53
2022/06/09 06:56:18;;;;;;;2.40;2.30;;;;;;;16.02;100.00;96562.50;4830093;29;20218;-53
2022/06/09 06:58:46;;;;;;;2.53;2.33;;;;;;;15.95;100.00;96556.47;4854105;29;20313;-57
2022/06/09 07:01:16;;;;;;;2.20;2.10;;;;;;;15.93;100.00;96554.06;4851726;29;20242;-55
2022/06/09 07:03:45;;;;;;;1.97;1.87;;;;;;;15.62;100.00;96553.34;4836190;29;20209;-57
2022/06/09 07:06:17;;;;;;;2.23;2.13;;;;;;;15.40;100.00;96564.56;4826095;29;20232;-50
2022/06/09 07:08:48;;;;;;;2.53;2.43;;;;;;;15.23;100.00;96568.97;4856367;29;20567;-54
2022/06/09 07:11:17;;;;;;;1.90;1.80;;;;;;;15.47;100.00;96572.47;4829428;29;20270;-53
2022/06/09 07:13:45;;;;;;;2.23;2.13;;;;;;;15.67;100.00;96572.16;4852818;29;20269;-56
2022/06/09 07:16:15;;;;;;;2.47;2.37;;;;;;;15.71;100.00;96578.66;4853016;29;20673;-54
2022/06/09 07:19:03;;;;;;;2.30;2.10;;;;;;;15.69;100.00;96574.56;4831847;29;20523;-53
2022/06/09 07:21:32;;;;;;;2.53;2.30;;;;;;;15.82;100.00;96573.53;4849525;29;20313;-56
2022/06/09 07:24:00;;;;;;;2.30;2.10;;;;;;;15.80;100.00;96578.28;4810940;29;20282;-58
2022/06/09 07:26:29;;;;;;;2.47;2.37;;;;;;;15.88;100.00;96576.13;4827450;29;20224;-54
2022/06/09 07:28:57;;;;;;;2.27;2.00;;;;;;;15.97;100.00;96581.94;4854540;29;20210;-56
2022/06/09 07:31:27;;;;;;;1.90;1.80;;;;;;;16.00;100.00;96581.47;4851514;29;20298;-54
2022/06/09 07:33:55;;;;;;;2.43;2.23;;;;;;;16.28;100.00;96589.78;4830590;29;20217;-56
2022/06/09 07:36:25;;;;;;;1.97;1.90;;;;;;;16.41;100.00;96584.19;4852527;29;20509;-59
2022/06/09 07:38:54;;;;;;;1.80;1.80;;;;;;;16.80;100.00;96594.31;4811896;29;20249;-58
2022/06/09 07:41:22;;;;;;;2.80;2.30;;;;;;;16.83;100.00;96593.00;4824908;29;20217;-51
2022/06/09 07:44:00;;;;;;;2.40;2.03;;;;;;;16.83;100.00;96593.81;4855066;29;20241;-57
2022/06/09 07:46:31;;;;;;;2.37;2.17;;;;;;;16.95;100.00;96595.63;4849058;29;20799;-54
2022/06/09 07:49:00;;;;;;;1.93;1.93;;;;;;;16.62;100.00;96598.75;4832350;29;20214;-58
2022/06/09 07:51:30;;;;;;;2.50;1.97;;;;;;;16.68;100.00;96598.91;4849217;29;20486;-57
2022/06/09 07:53:58;;;;;;;2.40;2.30;;;;;;;16.79;100.00;96596.16;4809352;29;20520;-58
2022/06/09 07:56:28;;;;;;;2.43;2.33;;;;;;;17.06;100.00;96606.31;4831368;29;20221;-57
2022/06/09 07:58:56;;;;;;;2.70;2.50;;;;;;;17.02;100.00;96604.34;4854035;29;20218;-54
2022/06/09 08:01:25;;;;;;;2.03;1.93;;;;;;;17.42;100.00;96605.31;4844390;29;20675;-54
2022/06/09 08:03:55;;;;;;;2.00;1.90;;;;;;;17.57;100.00;96604.78;4853970;29;20217;-57
2022/06/09 08:06:24;;;;;;;1.80;1.70;;;;;;;17.52;100.00;96605.50;4832103;29;20449;-53
2022/06/09 08:08:56;;;;;;;2.23;2.13;;;;;;;17.46;100.00;96609.16;4853149;29;20217;-57
2022/06/09 08:11:25;;;;;;;2.20;2.10;;;;;;;17.17;100.00;96607.31;4782536;29;20417;-54
2022/06/09 08:13:55;;;;;;;2.67;2.30;;;;;;;16.89;100.00;96605.44;4852284;29;20220;-55
2022/06/09 08:16:24;;;;;;;2.50;2.07;;;;;;;17.04;100.00;96603.06;4851077;29;20269;-56
2022/06/09 08:18:52;;;;;;;3.00;1.93;;;;;;;17.48;100.00;96610.53;4852232;29;20210;-55
2022/06/09 08:21:22;;;;;;;2.70;2.13;;;;;;;17.91;100.00;96608.25;4830539;29;20313;-54
2022/06/09 08:24:15;;;;;;;1.87;1.77;;;;;;;18.63;100.00;96615.66;4834985;29;20220;-53
2022/06/09 08:26:43;;;;;;;3.27;2.00;;;;;;;19.11;100.00;96615.13;4847458;29;20481;-57
2022/06/09 08:29:12;;;;;;;2.37;2.13;;;;;;;19.18;100.00;96621.13;4828731;29;20237;-53
2022/06/09 08:31:42;;;;;;;2.47;2.37;;;;;;;18.92;100.00;96623.50;4854326;29;20305;-56
2022/06/09 08:34:11;;;;;;;4.30;1.93;;;;;;;18.78;100.00;96621.22;4843128;29;20321;-52
2022/06/09 08:36:40;;;;;;;4.43;2.50;;;;;;;18.50;100.00;96627.56;4842989;29;20506;-54
2022/06/09 08:39:18;;;;;;;3.20;2.27;;;;;;;18.06;100.00;96622.97;4835965;29;20304;-51
2022/06/09 08:41:55;;;;;;;2.10;1.90;;;;;;;17.65;100.00;96631.16;4853301;29;20619;-55
2022/06/09 08:44:31;;;;;;;2.60;2.27;;;;;;;17.25;100.00;96632.91;4826438;29;20712;-56
2022/06/09 08:47:08;;;;;;;2.50;2.30;;;;;;;17.04;100.00;96640.53;4848845;29;20785;-58
2022/06/09 08:49:54;;;;;;;2.03;1.93;;;;;;;16.87;100.00;96642.34;4854527;29;20541;-57
2022/06/09 08:52:34;;;;;;;2.83;2.13;;;;;;;16.58;100.00;96645.75;4833853;29;20489;-57
2022/06/09 08:55:23;;;;;;;2.23;2.03;;;;;;;16.37;100.00;96643.72;4848886;29;20283;-55
2022/06/09 08:57:52;;;;;;;2.20;2.10;;;;;;;16.28;100.00;96643.25;4829407;29;20316;-56
2022/06/09 09:00:23;;;;;;;2.67;2.37;;;;;;;16.30;100.00;96651.84;4850563;29;20670;-54
2022/06/09 09:02:53;;;;;;;2.40;2.07;;;;;;;16.75;100.00;96656.53;4851800;29;20279;-56
2022/06/09 09:05:26;;;;;;;2.50;2.10;;;;;;;16.88;100.00;96655.47;4830415;29;20269;-55
2022/06/09 09:08:06;;;;;;;3.53;2.40;;;;;;;17.36;100.00;96663.31;4849999;29;20301;-55
2022/06/09 09:10:43;;;;;;;2.70;2.37;;;;;;;17.53;100.00;96658.00;4810056;29;21782;-59
2022/06/09 09:13:26;;;;;;;5.93;4.10;;;;;;;18.00;100.00;96661.44;4830820;29;20229;-52
2022/06/09 09:15:56;;;;;;;3.47;2.50;;;;;;;18.66;100.00;96664.28;4853500;29;20396;-58
2022/06/09 09:18:35;;;;;;;3.57;2.33;;;;;;;18.63;100.00;96661.28;4851165;29;20218;-58
2022/06/09 09:21:28;;;;;;;2.77;2.43;;;;;;;18.87;100.00;96666.41;4854888;29;20221;-52
2022/06/09 09:24:03;;;;;;;2.80;2.57;;;;;;;19.32;100.00;96668.00;4851866;29;20209;-57
2022/06/09 09:26:46;;;;;;;2.73;2.27;;;;;;;19.71;100.00;96664.34;4808541;29;21615;-58
2022/06/09 09:29:18;;;;;;;3.13;2.23;;;;;;;19.43;100.00;96658.19;4825333;29;20214;-52
2022/06/09 09:31:51;;;;;;;3.23;2.43;;;;;;;19.56;100.00;96662.34;4853349;29;20237;-56
2022/06/09 09:34:22;;;;;;;2.50;2.13;;;;;;;19.64;100.00;96669.91;4847694;29;20225;-55
2022/06/09 09:36:54;;;;;;;2.03;1.90;;;;;;;19.70;100.00;96667.28;4852057;29;20218;-53
2022/06/09 09:39:30;;;;;;;5.83;2.13;;;;;;;19.64;100.00;96666.41;4828007;29;20302;-57
2022/06/09 09:42:11;;;;;;;2.20;2.10;;;;;;;19.73;100.00;96664.06;4852208;29;21090;-53
2022/06/09 09:44:42;;;;;;;3.00;2.40;;;;;;;20.08;100.00;96663.59;4819759;29;20217;-57
2022/06/09 09:47:25;;;;;;;2.70;2.23;;;;;;;20.07;100.00;96663.84;4854612;29;20640;-55
2022/06/09 09:49:53;;;;;;;7.03;2.63;;;;;;;19.66;100.00;96672.34;4852673;29;20312;-58
2022/06/09 09:52:37;;;;;;;3.33;2.17;;;;;;;19.74;100.00;96669.22;4830908;29;20356;-54
2022/06/09 09:55:25;;;;;;;3.67;3.00;;;;;;;19.34;100.00;96671.25;4850560;29;20781;-55
2022/06/09 09:58:20;;;;;;;1.90;1.80;;;;;;;19.09;100.00;96674.47;4817694;29;20786;-57
2022/06/09 10:00:51;;;;;;;2.43;2.20;;;;;;;18.42;100.00;96674.44;4832269;29;20225;-58
2022/06/09 10:09:56;;;;;;;2.40;2.20;;;;;;;16.58;100.00;96690.41;4857310;29;20293;-58
2022/06/09 10:12:45;;;;;;;2.17;1.97;;;;;;;16.72;100.00;96699.00;4857141;29;20437;-57
2022/06/09 10:15:30;;;;;;;2.00;1.90;;;;;;;16.76;100.00;96700.16;4798071;29;21671;-51
2022/06/09 10:18:18;;;;;;;2.20;2.00;;;;;;;17.21;100.00;96699.47;4855497;29;20220;-53
2022/06/09 10:21:07;;;;;;;2.63;2.47;;;;;;;17.77;100.00;96704.22;4853453;29;20225;-57
2022/06/09 10:23:43;;;;;;;4.10;2.17;;;;;;;18.32;100.00;96695.72;4838748;29;20678;-57
2022/06/09 10:26:14;;;;;;;2.63;2.37;;;;;;;18.89;100.00;96704.53;4852847;29;20307;-56
2022/06/09 10:28:49;;;;;;;2.33;2.13;;;;;;;19.59;100.00;96696.75;4814659;29;20223;-58
2022/06/09 10:31:27;;;;;;;3.10;2.83;;;;;;;20.44;100.00;96689.91;4835010;29;20735;-53
2022/06/09 10:34:00;;;;;;;2.80;2.60;;;;;;;21.45;100.00;96694.38;4854193;29;20307;-53
2022/06/09 10:36:32;;;;;;;3.30;2.63;;;;;;;21.96;100.00;96693.66;4854030;29;20565;-54
2022/06/09 10:39:04;;;;;;;3.37;2.90;;;;;;;22.50;99.03;96696.06;4834528;29;20347;-56
2022/06/09 10:41:40;;;;;;;2.20;2.10;;;;;;;22.71;95.99;96696.81;4849382;29;20214;-57
2022/06/09 10:44:16;;;;;;;5.00;2.50;;;;;;;22.44;96.26;96694.44;4840656;29;20544;-55
2022/06/09 10:55:14;;;;;;;2.13;2.00;;;;;;;21.71;95.59;96697.16;4831801;29;20224;-56
2022/06/09 10:55:25;;;;;;;2.37;2.13;;;;;;;21.74;97.43;96691.22;4831708;29;20305;-53
2022/06/09 10:58:07;;;;;;;3.13;2.40;;;;;;;22.54;100.00;96684.47;4853172;29;20220;-58
2022/06/09 11:00:39;;;;;;;1.80;1.70;;;;;;;22.45;92.64;96685.25;4811131;29;21378;-53
2022/06/09 11:03:13;;;;;;;4.27;3.00;;;;;;;22.90;87.54;96685.41;4827727;29;20237;-56
2022/06/09 11:05:55;;;;;;;1.70;1.57;;;;;;;23.34;81.84;96690.13;4855517;29;20309;-55
2022/06/09 11:08:27;;;;;;;2.30;2.10;;;;;;;23.75;77.25;96688.22;4853914;29;20597;-55
2022/06/09 11:11:01;;;;;;;2.70;1.97;;;;;;;23.19;83.91;96684.75;4837442;29;20308;-59
2022/06/09 11:13:44;;;;;;;2.53;2.30;;;;;;;23.02;87.84;96688.63;4852228;29;20457;-59
2022/06/09 11:16:18;;;;;;;2.77;2.30;;;;;;;21.17;100.00;96696.44;4813502;29;20228;-52
2022/06/09 11:19:08;;;;;;;3.87;2.60;;;;;;;20.16;100.00;96689.16;4833537;29;20269;-58
2022/06/09 11:21:42;;;;;;;9.30;5.97;;;;;;;20.57;100.00;96694.03;4857576;29;20238;-58
2022/06/09 11:24:21;;;;;;;3.60;2.30;;;;;;;20.88;100.00;96688.00;4848929;29;20747;-52
2022/06/09 11:26:53;;;;;;;4.40;2.13;;;;;;;21.15;100.00;96693.22;4836638;29;20307;-58
2022/06/09 11:29:50;;;;;;;2.77;1.70;;;;;;;21.46;99.33;96693.31;4852478;29;20374;-58
2022/06/09 11:32:25;;;;;;;1.90;1.33;;;;;;;20.84;85.25;96690.41;4797036;29;20741;-52
2022/06/09 11:35:13;;;;;;;1.60;1.50;;;;;;;20.70;86.07;96689.22;4829660;29;20229;-55
2022/06/09 11:37:50;;;;;;;3.03;1.13;;;;;;;20.87;88.19;96695.28;4854224;29;20212;-58
2022/06/09 11:40:25;;;;;;;1.93;1.77;;;;;;;20.87;82.44;96691.75;4847168;29;20336;-55
2022/06/09 11:43:11;;;;;;;4.10;1.60;;;;;;;21.16;78.77;96694.03;4833601;29;20251;-56
2022/06/09 11:45:48;;;;;;;2.10;1.30;;;;;;;21.31;77.68;96699.47;4849035;29;21083;-53
2022/06/09 11:48:23;;;;;;;3.70;1.73;;;;;;;21.41;76.06;96695.97;4791420;29;20228;-51
2022/06/09 11:50:51;;;;;;;2.47;1.70;;;;;;;21.45;81.14;96689.00;4858938;29;20576;-54
2022/06/09 11:53:22;;;;;;;2.57;1.70;;;;;;;21.44;78.55;96689.28;4853701;29;20320;-53
2022/06/09 11:56:00;;;;;;;4.93;1.60;;;;;;;21.05;72.74;96690.50;4853479;29;20476;-54
2022/06/09 11:58:49;;;;;;;3.23;1.67;;;;;;;20.31;85.25;96698.44;4827985;29;20305;-53
2022/06/09 12:01:31;;;;;;;2.00;1.43;;;;;;;19.77;86.81;96706.31;4850880;29;20218;-51
2022/06/09 12:04:10;;;;;;;3.60;1.40;;;;;;;19.41;82.47;96699.78;4810778;29;20217;-58
2022/06/09 12:07:01;;;;;;;1.97;1.43;;;;;;;19.49;77.06;96713.56;4852962;29;20378;-56
2022/06/09 12:09:46;;;;;;;1.87;1.10;;;;;;;19.57;76.29;96711.50;4841895;29;20545;-58
2022/06/09 12:12:39;;;;;;;2.13;1.43;;;;;;;20.31;74.04;96704.59;4841435;29;20233;-54
2022/06/09 12:15:28;;;;;;;1.50;1.40;;;;;;;21.31;86.20;96712.13;4853036;29;20218;-55